createdAt,value
2022-10-13T00:01:18.336Z,20.60
2022-10-13T00:03:47.278Z,18.47
2022-10-13T00:06:23.130Z,20.23
2022-10-13T00:08:50.368Z,15.97
2022-10-13T00:11:26.170Z,21.00
2022-10-13T00:14:01.141Z,17.77
2022-10-13T00:16:30.210Z,16.60
2022-10-13T00:18:57.390Z,19.27
2022-10-13T00:21:26.302Z,15.63
2022-10-13T00:23:54.558Z,18.90
2022-10-13T00:26:23.868Z,19.40
2022-10-13T00:28:52.802Z,18.05
2022-10-13T00:33:54.888Z,18.77
2022-10-13T00:36:23.269Z,18.10
2022-10-13T00:38:50.441Z,17.50
2022-10-13T00:41:17.887Z,15.53
2022-10-13T00:43:58.758Z,19.97
2022-10-13T00:46:31.872Z,19.80
2022-10-13T00:49:02.875Z,18.83
2022-10-13T00:51:33.354Z,20.37
2022-10-13T00:54:03.461Z,20.53
2022-10-13T00:56:30.582Z,20.50
2022-10-13T00:58:57.811Z,19.80
2022-10-13T01:01:24.611Z,21.17
2022-10-13T01:03:51.508Z,27.47
2022-10-13T01:06:23.449Z,26.30
2022-10-13T01:08:50.852Z,34.60
2022-10-13T01:12:08.428Z,32.00
2022-10-13T01:14:56.274Z,33.13
2022-10-13T01:17:55.417Z,28.10
2022-10-13T01:20:24.843Z,26.30
2022-10-13T01:25:58.121Z,24.50
2022-10-13T01:28:44.494Z,22.90
2022-10-13T01:31:25.178Z,20.27
2022-10-13T01:34:09.132Z,20.63
2022-10-13T01:37:11.181Z,18.03
2022-10-13T01:39:45.264Z,18.07
2022-10-13T01:42:22.682Z,17.50
2022-10-13T01:44:58.965Z,19.83
2022-10-13T01:47:27.305Z,17.83
2022-10-13T01:49:55.483Z,17.30
2022-10-13T01:52:25.995Z,18.27
2022-10-13T01:54:53.875Z,19.03
2022-10-13T01:57:33.602Z,17.30
2022-10-13T02:00:04.239Z,20.17
2022-10-13T02:02:41.937Z,15.75
2022-10-13T02:05:26.931Z,19.33
2022-10-13T02:07:57.012Z,18.77
2022-10-13T02:10:51.521Z,19.63
2022-10-13T02:13:22.634Z,17.70
2022-10-13T02:15:53.829Z,18.73
2022-10-13T02:18:26.131Z,19.50
2022-10-13T02:20:54.355Z,24.87
2022-10-13T02:23:22.005Z,18.93
2022-10-13T02:25:50.904Z,19.20
2022-10-13T02:28:18.129Z,22.00
2022-10-13T02:30:46.343Z,23.23
2022-10-13T02:33:14.618Z,21.87
2022-10-13T02:35:42.209Z,21.23
2022-10-13T02:38:09.571Z,23.30
2022-10-13T02:40:36.645Z,18.63
2022-10-13T02:43:03.628Z,20.40
2022-10-13T02:45:36.773Z,21.40
2022-10-13T02:48:03.653Z,26.83
2022-10-13T02:50:30.436Z,26.97
2022-10-13T02:52:58.878Z,23.70
2022-10-13T02:55:25.748Z,22.47
2022-10-13T02:57:56.283Z,27.07
2022-10-13T03:00:24.193Z,25.90
2022-10-13T03:02:51.096Z,25.03
2022-10-13T03:05:17.965Z,26.27
2022-10-13T03:07:44.848Z,22.67
2022-10-13T03:10:11.740Z,24.67
2022-10-13T03:12:38.780Z,31.03
2022-10-13T03:15:05.915Z,38.93
2022-10-13T03:17:32.735Z,40.67
2022-10-13T03:19:59.862Z,45.47
2022-10-13T03:22:26.782Z,41.27
2022-10-13T03:24:53.773Z,36.70
2022-10-13T03:27:21.029Z,36.27
2022-10-13T03:29:47.859Z,40.93
2022-10-13T03:32:14.741Z,41.27
2022-10-13T03:34:41.495Z,40.83
2022-10-13T03:37:08.541Z,55.03
2022-10-13T03:39:41.359Z,44.57
2022-10-13T03:42:09.077Z,43.67
2022-10-13T03:44:36.928Z,42.38
2022-10-13T03:47:03.840Z,48.70
2022-10-13T03:49:30.700Z,38.83
2022-10-13T03:51:57.451Z,48.53
2022-10-13T03:54:24.892Z,44.07
2022-10-13T03:56:53.238Z,45.92
2022-10-13T03:59:20.028Z,56.83
2022-10-13T04:01:46.868Z,50.57
2022-10-13T04:04:14.005Z,43.20
2022-10-13T04:06:42.113Z,53.70
2022-10-13T04:09:09.666Z,54.40
2022-10-13T04:11:36.625Z,56.90
2022-10-13T04:14:04.056Z,53.60
2022-10-13T04:16:31.845Z,52.27
2022-10-13T04:19:04.649Z,58.10
2022-10-13T04:21:33.874Z,60.20
2022-10-13T04:24:02.065Z,65.80
2022-10-13T04:26:30.879Z,72.67
2022-10-13T04:31:26.380Z,55.50
2022-10-13T04:33:53.838Z,71.10
2022-10-13T04:36:21.272Z,66.53
2022-10-13T04:38:50.357Z,55.45
2022-10-13T04:41:18.655Z,64.57
2022-10-13T04:43:50.576Z,61.07
2022-10-13T04:46:21.151Z,58.60
2022-10-13T04:48:49.366Z,68.90
2022-10-13T04:51:19.445Z,61.23
2022-10-13T04:53:46.451Z,59.63
2022-10-13T04:56:16.680Z,62.27
2022-10-13T04:58:45.473Z,61.53
2022-10-13T05:01:21.159Z,62.13
2022-10-13T05:03:59.416Z,63.97
2022-10-13T05:06:31.699Z,72.13
2022-10-13T05:08:58.692Z,56.77
2022-10-13T05:11:26.866Z,57.13
2022-10-13T05:13:54.614Z,56.60
2022-10-13T05:16:22.610Z,50.27
2022-10-13T05:18:50.996Z,47.17
2022-10-13T05:21:23.359Z,45.43
2022-10-13T05:23:54.070Z,44.67
2022-10-13T05:26:22.795Z,47.77
2022-10-13T05:28:49.802Z,46.35
2022-10-13T05:31:20.931Z,59.27
2022-10-13T05:33:49.132Z,63.27
2022-10-13T05:36:30.249Z,64.27
2022-10-13T05:39:00.299Z,68.80
2022-10-13T05:41:28.429Z,60.27
2022-10-13T05:43:59.604Z,67.43
2022-10-13T05:46:26.570Z,74.00
2022-10-13T05:48:53.573Z,72.60
2022-10-13T05:51:27.167Z,72.70
2022-10-13T05:54:09.916Z,61.00
2022-10-13T05:56:42.009Z,71.33
2022-10-13T05:59:12.539Z,70.47
2022-10-13T06:01:41.024Z,75.77
2022-10-13T06:04:17.259Z,66.65
2022-10-13T06:06:45.798Z,65.37
2022-10-13T06:09:12.816Z,59.93
2022-10-13T06:11:40.217Z,60.53
2022-10-13T06:14:06.966Z,60.43
2022-10-13T06:16:36.511Z,55.50
2022-10-13T06:19:05.109Z,59.00
2022-10-13T06:21:34.004Z,60.72
2022-10-13T06:24:01.474Z,60.83
2022-10-13T06:26:28.237Z,61.97
2022-10-13T06:28:59.331Z,62.73
2022-10-13T06:31:27.700Z,56.83
2022-10-13T06:33:54.939Z,63.97
2022-10-13T06:36:22.468Z,53.38
2022-10-13T06:38:49.422Z,51.15
2022-10-13T06:41:18.831Z,56.75
2022-10-13T06:43:45.738Z,50.38
2022-10-13T06:46:13.091Z,52.55
2022-10-13T06:48:39.935Z,45.22
2022-10-13T06:51:10.046Z,47.15
2022-10-13T06:53:37.375Z,49.67
2022-10-13T06:56:06.538Z,50.17
2022-10-13T06:58:35.539Z,54.60
2022-10-13T07:01:02.536Z,50.08
2022-10-13T07:03:29.538Z,51.97
2022-10-13T07:06:01.412Z,56.80
2022-10-13T07:08:28.242Z,47.67
2022-10-13T07:10:55.207Z,50.75
2022-10-13T07:15:49.065Z,50.38
2022-10-13T07:18:15.896Z,43.25
2022-10-13T07:20:42.924Z,41.95
2022-10-13T07:23:09.812Z,47.90
2022-10-13T07:25:37.756Z,42.78
2022-10-13T07:28:05.479Z,42.88
2022-10-13T07:30:32.482Z,42.33
2022-10-13T07:33:00.224Z,37.80
2022-10-13T07:35:30.693Z,38.13
2022-10-13T07:37:57.949Z,36.55
2022-10-13T07:40:25.149Z,41.35
2022-10-13T07:42:52.184Z,41.45
2022-10-13T07:45:19.004Z,39.47
2022-10-13T07:47:45.795Z,40.05
2022-10-13T07:50:12.824Z,39.45
2022-10-13T07:52:39.763Z,41.75
2022-10-13T07:55:09.398Z,38.28
2022-10-13T07:57:36.275Z,39.53
2022-10-13T08:00:06.380Z,40.70
2022-10-13T08:02:39.153Z,38.97
2022-10-13T08:05:06.709Z,34.97
2022-10-13T08:07:33.486Z,36.55
2022-10-13T08:10:00.255Z,39.15
2022-10-13T08:12:27.115Z,32.55
2022-10-13T08:14:54.234Z,37.03
2022-10-13T08:17:21.662Z,43.15
2022-10-13T08:19:51.147Z,39.38
2022-10-13T08:22:19.733Z,33.83
2022-10-13T08:24:46.569Z,34.53
2022-10-13T08:27:21.093Z,32.10
2022-10-13T08:29:48.573Z,33.10
2022-10-13T08:32:15.848Z,36.42
2022-10-13T08:34:42.802Z,37.25
2022-10-13T08:37:18.568Z,35.65
2022-10-13T08:39:45.603Z,36.97
2022-10-13T08:42:22.387Z,34.88
2022-10-13T08:47:54.727Z,37.08
2022-10-13T08:50:25.627Z,32.97
2022-10-13T08:53:17.755Z,31.15
2022-10-13T08:55:56.085Z,34.42
2022-10-13T08:58:32.353Z,34.10
2022-10-13T09:01:17.805Z,38.15
2022-10-13T09:03:57.324Z,33.65
2022-10-13T09:06:31.911Z,37.30
2022-10-13T09:09:10.439Z,30.98
2022-10-13T09:11:43.212Z,29.48
2022-10-13T09:14:19.081Z,31.30
2022-10-13T09:16:46.776Z,29.60
2022-10-13T09:19:22.701Z,31.85
2022-10-13T09:21:55.497Z,30.90
2022-10-13T09:24:24.091Z,32.53
2022-10-13T09:27:03.988Z,33.10
2022-10-13T09:29:32.552Z,27.60
2022-10-13T09:32:19.852Z,30.40
2022-10-13T09:34:48.107Z,31.58
2022-10-13T09:37:25.478Z,30.65
2022-10-13T09:40:22.036Z,31.48
2022-10-13T09:42:54.574Z,31.88
2022-10-13T09:45:37.422Z,34.67
2022-10-13T09:48:20.062Z,34.72
2022-10-13T09:50:51.970Z,29.42
2022-10-13T09:53:41.088Z,28.63
2022-10-13T09:56:23.813Z,30.60
2022-10-13T09:59:33.465Z,31.20
2022-10-13T10:02:28.653Z,34.65
2022-10-13T10:05:00.155Z,27.10
2022-10-13T10:07:31.879Z,32.10
2022-10-13T10:10:05.014Z,34.53
2022-10-13T10:12:36.676Z,27.08
2022-10-13T10:15:08.056Z,33.65
2022-10-13T10:17:49.109Z,34.05
2022-10-13T10:20:22.021Z,27.80
2022-10-13T10:23:27.847Z,27.92
2022-10-13T10:26:13.389Z,25.95
2022-10-13T10:28:51.982Z,27.98
2022-10-13T10:31:24.491Z,25.05
2022-10-13T10:34:08.419Z,29.45
2022-10-13T10:37:01.682Z,26.10
2022-10-13T10:39:36.216Z,25.20
2022-10-13T10:42:36.851Z,26.58
2022-10-13T10:45:13.136Z,23.92
2022-10-13T10:47:43.496Z,25.33
2022-10-13T10:50:16.255Z,21.88
2022-10-13T10:52:55.789Z,26.40
2022-10-13T10:55:31.742Z,27.40
2022-10-13T10:58:29.350Z,22.17
2022-10-13T11:01:11.433Z,20.50
2022-10-13T11:03:45.699Z,21.42
2022-10-13T11:06:12.594Z,22.48
2022-10-13T11:08:42.958Z,27.38
2022-10-13T11:11:37.487Z,21.98
2022-10-13T11:14:08.682Z,21.40
2022-10-13T11:16:39.555Z,25.42
2022-10-13T11:19:35.253Z,21.33
2022-10-13T11:22:02.034Z,18.95
2022-10-13T11:24:42.098Z,22.30
2022-10-13T11:27:17.062Z,22.92
2022-10-13T11:29:44.101Z,20.60
2022-10-13T11:32:31.382Z,20.88
2022-10-13T11:35:05.644Z,18.40
2022-10-13T11:38:07.597Z,18.65
2022-10-13T11:40:59.804Z,20.15
2022-10-13T11:43:42.108Z,19.30
2022-10-13T11:46:39.656Z,17.27
2022-10-13T11:49:23.132Z,16.48
2022-10-13T11:51:59.783Z,16.92
2022-10-13T11:54:44.604Z,14.90
2022-10-13T11:57:26.179Z,18.33
2022-10-13T11:59:56.079Z,16.40
2022-10-13T12:02:53.725Z,16.52
2022-10-13T12:05:22.789Z,15.98
2022-10-13T12:07:52.403Z,20.33
2022-10-13T12:10:32.732Z,16.70
2022-10-13T12:13:01.611Z,16.40
2022-10-13T12:15:42.286Z,17.20
2022-10-13T12:18:25.072Z,16.48
2022-10-13T12:20:56.951Z,16.92
2022-10-13T12:23:24.679Z,17.25
2022-10-13T12:25:57.443Z,14.30
2022-10-13T12:28:27.723Z,15.93
2022-10-13T12:30:57.901Z,14.98
2022-10-13T12:33:35.422Z,12.82
2022-10-13T12:36:18.257Z,15.60
2022-10-13T12:38:54.325Z,14.73
2022-10-13T12:41:30.845Z,11.63
2022-10-13T12:44:01.114Z,15.23
2022-10-13T12:46:41.847Z,12.23
2022-10-13T12:49:14.869Z,18.80
2022-10-13T12:51:43.508Z,15.32
2022-10-13T12:54:24.606Z,14.70
2022-10-13T12:56:56.279Z,12.18
2022-10-13T12:59:24.718Z,10.90
2022-10-13T13:02:03.713Z,12.23
2022-10-13T13:04:40.281Z,9.23
2022-10-13T13:07:25.731Z,13.75
2022-10-13T13:10:07.819Z,13.23
2022-10-13T13:12:38.360Z,8.45
2022-10-13T13:15:19.772Z,11.40
2022-10-13T13:18:02.268Z,6.82
2022-10-13T13:20:31.953Z,9.60
2022-10-13T13:22:59.607Z,11.57
2022-10-13T13:25:27.418Z,9.52
2022-10-13T13:27:54.373Z,9.75
2022-10-13T13:30:23.254Z,8.07
2022-10-13T13:35:17.392Z,7.30
2022-10-13T13:37:50.014Z,7.97
2022-10-13T13:40:24.411Z,11.85
2022-10-13T13:42:52.838Z,8.85
2022-10-13T13:45:23.036Z,8.18
2022-10-13T13:47:51.436Z,8.32
2022-10-13T13:50:20.836Z,9.43
2022-10-13T13:52:56.473Z,11.45
2022-10-13T13:55:23.686Z,9.88
2022-10-13T13:57:50.552Z,9.88
2022-10-13T14:00:20.963Z,8.88
2022-10-13T14:02:53.312Z,13.13
2022-10-13T14:05:20.156Z,10.90
2022-10-13T14:07:48.475Z,6.75
2022-10-13T14:10:15.344Z,9.93
2022-10-13T14:12:42.201Z,13.27
2022-10-13T14:15:10.598Z,11.48
2022-10-13T14:17:37.648Z,10.60
2022-10-13T14:20:06.413Z,22.23
2022-10-13T14:22:38.633Z,24.85
2022-10-13T14:25:07.050Z,16.67
2022-10-13T14:27:35.276Z,12.75
2022-10-13T14:30:02.291Z,12.85
2022-10-13T14:32:29.180Z,9.40
2022-10-13T14:34:55.990Z,14.90
2022-10-13T14:37:23.899Z,11.07
2022-10-13T14:39:52.251Z,12.88
2022-10-13T14:42:20.705Z,12.77
2022-10-13T14:44:47.584Z,12.13
2022-10-13T14:47:14.741Z,17.50
2022-10-13T14:49:41.608Z,27.80
2022-10-13T14:52:09.194Z,17.75
2022-10-13T14:54:37.430Z,22.77
2022-10-13T14:57:08.314Z,14.88
2022-10-13T14:59:35.164Z,14.35
2022-10-13T15:02:01.958Z,14.98
2022-10-13T15:04:28.916Z,8.57
2022-10-13T15:06:56.086Z,8.57
2022-10-13T15:09:38.641Z,13.00
2022-10-13T15:12:15.433Z,7.18
2022-10-13T15:14:42.282Z,9.88
2022-10-13T15:17:09.057Z,9.45
2022-10-13T15:19:36.862Z,6.70
2022-10-13T15:22:04.569Z,5.95
2022-10-13T15:29:29.877Z,8.65
2022-10-13T15:32:11.391Z,8.43
2022-10-13T15:34:40.105Z,9.02
2022-10-13T15:37:07.443Z,6.88
2022-10-13T15:39:34.329Z,5.72
2022-10-13T15:42:01.288Z,6.25
2022-10-13T15:44:30.882Z,7.85
2022-10-13T15:47:07.838Z,8.70
2022-10-13T15:49:39.774Z,11.30
2022-10-13T15:52:06.717Z,8.05
2022-10-13T15:54:33.691Z,9.73
2022-10-13T15:57:00.497Z,8.65
2022-10-13T15:59:28.522Z,7.88
2022-10-13T16:01:55.299Z,8.95
2022-10-13T16:04:22.171Z,9.15
2022-10-13T16:06:49.027Z,9.55
2022-10-13T16:09:15.806Z,8.57
2022-10-13T16:11:42.700Z,6.95
2022-10-13T16:14:09.503Z,10.07
2022-10-13T16:16:36.405Z,9.57
2022-10-13T16:19:03.587Z,6.80
2022-10-13T16:21:30.481Z,6.72
2022-10-13T16:23:59.452Z,8.57
2022-10-13T16:26:26.594Z,11.35
2022-10-13T16:28:57.031Z,8.80
2022-10-13T16:31:24.569Z,9.27
2022-10-13T16:33:51.411Z,6.95
2022-10-13T16:36:19.475Z,6.45
2022-10-13T16:38:52.051Z,8.40
2022-10-13T16:41:19.157Z,5.97
2022-10-13T16:43:47.228Z,6.60
2022-10-13T16:46:16.399Z,9.05
